Time,TemperatureF,DewpointF,PressureIn,WindDirection,WindDirectionDegrees,WindSpeedMPH,WindSpeedGustMPH,Humidity,HourlyPrecipIn,Conditions,Clouds,dailyrainin,SolarRadiationWatts/m^2,SoftwareType,DateUTC
2013-07-06 00:22:00,80.0,51.0,-100.00,SSE,152,7.0,14.0,37,0.00,,,0.00,152.000000,,2013-07-06 00:22:00,
2013-07-06 00:33:00,80.0,51.0,-100.00,SSE,152,7.0,14.0,37,0.00,,,0.00,152.000000,,2013-07-06 00:33:00,
2013-07-06 00:42:00,80.0,51.0,-100.00,SSE,152,7.0,14.0,37,0.00,,,0.00,152.000000,,2013-07-06 00:42:00,
2013-07-06 00:53:00,80.0,51.0,-100.00,SSE,152,7.0,14.0,37,0.00,,,0.00,152.000000,,2013-07-06 00:53:00,
2013-07-06 01:33:00,79.0,53.0,-100.00,SE,141,7.0,15.0,40,0.00,,,0.00,79.000000,,2013-07-06 01:33:00,
2013-07-06 01:42:00,79.0,53.0,-100.00,SE,141,7.0,15.0,40,0.00,,,0.00,79.000000,,2013-07-06 01:42:00,
2013-07-06 01:53:00,79.0,53.0,-100.00,SE,141,7.0,15.0,40,0.00,,,0.00,79.000000,,2013-07-06 01:53:00,
2013-07-06 02:22:00,77.0,53.0,-100.00,South,191,2.0,19.0,44,0.00,,,0.00,53.000000,,2013-07-06 02:22:00,
2013-07-06 02:33:00,77.0,53.0,-100.00,South,191,2.0,19.0,44,0.00,,,0.00,53.000000,,2013-07-06 02:33:00,
2013-07-06 02:43:00,77.0,53.0,-100.00,South,191,2.0,19.0,44,0.00,,,0.00,53.000000,,2013-07-06 02:43:00,
2013-07-06 02:53:00,77.0,53.0,-100.00,South,191,2.0,19.0,44,0.00,,,0.00,53.000000,,2013-07-06 02:53:00,
2013-07-06 03:22:00,74.0,54.0,-100.00,NNW,344,5.0,8.0,49,0.00,,,0.00,1.000000,,2013-07-06 03:22:00,
2013-07-06 03:34:00,74.0,54.0,-100.00,NNW,344,5.0,8.0,49,0.00,,,0.00,1.000000,,2013-07-06 03:34:00,
2013-07-06 03:43:00,74.0,54.0,-100.00,NNW,344,5.0,8.0,49,0.00,,,0.00,1.000000,,2013-07-06 03:43:00,
2013-07-06 03:52:00,74.0,54.0,-100.00,NNW,344,5.0,8.0,49,0.00,,,0.00,1.000000,,2013-07-06 03:52:00,
2013-07-06 04:22:00,66.0,59.0,-100.00,NW,323,3.0,15.0,79,0.04,,,0.04,0.000000,,2013-07-06 04:22:00,
2013-07-06 04:33:00,66.0,59.0,-100.00,NW,323,3.0,15.0,79,0.04,,,0.04,0.000000,,2013-07-06 04:33:00,
2013-07-06 04:43:00,66.0,59.0,-100.00,NW,323,3.0,15.0,79,0.04,,,0.04,0.000000,,2013-07-06 04:43:00,
2013-07-06 04:53:00,66.0,59.0,-100.00,NW,323,3.0,15.0,79,0.04,,,0.04,0.000000,,2013-07-06 04:53:00,
2013-07-06 05:33:00,68.0,59.0,-100.00,NNE,18,4.0,9.0,72,0.01,,,0.05,0.000000,,2013-07-06 05:33:00,
2013-07-06 05:42:00,68.0,59.0,-100.00,NNE,18,4.0,9.0,72,0.01,,,0.05,0.000000,,2013-07-06 05:42:00,
2013-07-06 05:53:00,68.0,59.0,-100.00,NNE,18,4.0,9.0,72,0.01,,,0.05,0.000000,,2013-07-06 05:53:00,
2013-07-06 06:22:00,70.0,55.0,-100.00,West,274,3.0,7.0,59,0.00,,,0.05,0.000000,,2013-07-06 06:22:00,
2013-07-06 06:34:00,70.0,55.0,-100.00,West,274,3.0,7.0,59,0.00,,,0.05,0.000000,,2013-07-06 06:34:00,
2013-07-06 06:43:00,70.0,55.0,-100.00,West,274,3.0,7.0,59,0.00,,,0.05,0.000000,,2013-07-06 06:43:00,
2013-07-06 06:53:00,70.0,55.0,-100.00,West,274,3.0,7.0,59,0.00,,,0.05,0.000000,,2013-07-06 06:53:00,
2013-07-06 07:22:00,66.0,57.0,-100.00,WNW,300,3.0,4.0,74,0.00,,,0.05,0.000000,,2013-07-06 07:22:00,
2013-07-06 07:33:00,66.0,57.0,-100.00,WNW,300,3.0,4.0,74,0.00,,,0.05,0.000000,,2013-07-06 07:33:00,
2013-07-06 07:44:00,66.0,57.0,-100.00,WNW,300,3.0,4.0,74,0.00,,,0.05,0.000000,,2013-07-06 07:44:00,
2013-07-06 07:52:00,66.0,57.0,-100.00,WNW,300,3.0,4.0,74,0.00,,,0.05,0.000000,,2013-07-06 07:52:00,
2013-07-06 08:34:00,66.0,58.0,-100.00,WNW,301,4.0,11.0,76,0.00,,,0.05,0.000000,,2013-07-06 08:34:00,
2013-07-06 08:43:00,66.0,58.0,-100.00,WNW,301,4.0,11.0,76,0.00,,,0.05,0.000000,,2013-07-06 08:43:00,
2013-07-06 08:54:00,66.0,58.0,-100.00,WNW,301,4.0,11.0,76,0.00,,,0.05,0.000000,,2013-07-06 08:54:00,
2013-07-06 09:33:00,64.0,57.0,-100.00,NNE,24,4.0,6.0,77,0.00,,,0.05,0.000000,,2013-07-06 09:33:00,
2013-07-06 09:43:00,64.0,57.0,-100.00,NNE,24,4.0,6.0,77,0.00,,,0.05,0.000000,,2013-07-06 09:43:00,
2013-07-06 09:52:00,64.0,57.0,-100.00,NNE,24,4.0,6.0,77,0.00,,,0.05,0.000000,,2013-07-06 09:52:00,
2013-07-06 10:22:00,62.0,57.0,-100.00,WSW,244,2.0,6.0,83,0.00,,,0.05,0.000000,,2013-07-06 10:22:00,
2013-07-06 10:33:00,62.0,57.0,-100.00,WSW,244,2.0,6.0,83,0.00,,,0.05,0.000000,,2013-07-06 10:33:00,
2013-07-06 10:42:00,62.0,57.0,-100.00,WSW,244,2.0,6.0,83,0.00,,,0.05,0.000000,,2013-07-06 10:42:00,
2013-07-06 10:53:00,62.0,57.0,-100.00,WSW,244,2.0,6.0,83,0.00,,,0.05,0.000000,,2013-07-06 10:53:00,
2013-07-06 11:33:00,61.0,57.0,-100.00,North,6,3.0,8.0,87,0.00,,,0.05,0.000000,,2013-07-06 11:33:00,
2013-07-06 11:42:00,61.0,57.0,-100.00,North,6,3.0,8.0,87,0.00,,,0.05,0.000000,,2013-07-06 11:42:00,
2013-07-06 11:53:00,61.0,57.0,-100.00,North,6,3.0,8.0,87,0.00,,,0.05,0.000000,,2013-07-06 11:53:00,
2013-07-06 12:22:00,61.0,55.0,-100.00,NNE,24,7.0,9.0,80,0.00,,,0.05,8.000000,,2013-07-06 12:22:00,
2013-07-06 12:33:00,61.0,55.0,-100.00,NNE,24,7.0,9.0,80,0.00,,,0.05,8.000000,,2013-07-06 12:33:00,
2013-07-06 12:43:00,61.0,55.0,-100.00,NNE,24,7.0,9.0,80,0.00,,,0.05,8.000000,,2013-07-06 12:43:00,
2013-07-06 12:52:00,61.0,55.0,-100.00,NNE,24,7.0,9.0,80,0.00,,,0.05,8.000000,,2013-07-06 12:52:00,
2013-07-06 13:33:00,69.0,55.0,-100.00,North,351,5.0,11.0,61,0.00,,,0.05,106.000000,,2013-07-06 13:33:00,
2013-07-06 13:43:00,69.0,55.0,-100.00,North,351,5.0,11.0,61,0.00,,,0.05,106.000000,,2013-07-06 13:43:00,
2013-07-06 13:52:00,69.0,55.0,-100.00,North,351,5.0,11.0,61,0.00,,,0.05,106.000000,,2013-07-06 13:52:00,
2013-07-06 14:34:00,74.0,56.0,-100.00,NNE,30,3.0,8.0,54,0.00,,,0.05,265.000000,,2013-07-06 14:34:00,
2013-07-06 14:42:00,74.0,56.0,-100.00,NNE,30,3.0,8.0,54,0.00,,,0.05,265.000000,,2013-07-06 14:42:00,
2013-07-06 14:53:00,74.0,56.0,-100.00,NNE,30,3.0,8.0,54,0.00,,,0.05,265.000000,,2013-07-06 14:53:00,
2013-07-06 15:22:00,79.0,54.0,-100.00,NW,310,4.0,9.0,42,0.00,,,0.05,428.000000,,2013-07-06 15:22:00,
2013-07-06 15:33:00,79.0,54.0,-100.00,NW,310,4.0,9.0,42,0.00,,,0.05,428.000000,,2013-07-06 15:33:00,
2013-07-06 15:43:00,79.0,54.0,-100.00,NW,310,4.0,9.0,42,0.00,,,0.05,428.000000,,2013-07-06 15:43:00,
2013-07-06 15:53:00,79.0,54.0,-100.00,NW,310,4.0,9.0,42,0.00,,,0.05,428.000000,,2013-07-06 15:53:00,
2013-07-06 15:57:00,78.0,58.0,-100.00,SW,223,5.0,11.0,50,0.00,,,0.05,536.000000,,2013-07-06 15:57:00,
2013-07-06 16:24:00,78.0,58.0,-100.00,SW,223,5.0,11.0,50,0.00,,,0.05,536.000000,,2013-07-06 16:24:00,
2013-07-06 16:51:00,78.0,58.0,-100.00,SW,223,5.0,11.0,50,0.00,,,0.05,536.000000,,2013-07-06 16:51:00,
2013-07-06 16:57:00,85.0,57.0,-100.00,NW,304,6.0,13.0,38,0.00,,,0.05,744.000000,,2013-07-06 16:57:00,
2013-07-06 17:42:00,85.0,57.0,-100.00,NW,304,6.0,13.0,38,0.00,,,0.05,744.000000,,2013-07-06 17:42:00,
2013-07-06 17:50:00,85.0,57.0,-100.00,NW,304,6.0,13.0,38,0.00,,,0.05,744.000000,,2013-07-06 17:50:00,
2013-07-06 18:42:00,85.0,55.0,-100.00,NW,324,5.0,17.0,36,0.00,,,0.05,789.000000,,2013-07-06 18:42:00,
2013-07-06 18:51:00,85.0,55.0,-100.00,NW,324,5.0,17.0,36,0.00,,,0.05,789.000000,,2013-07-06 18:51:00,
2013-07-06 19:29:00,86.0,55.0,-100.00,NE,38,5.0,13.0,35,0.00,,,0.05,540.000000,,2013-07-06 19:29:00,
2013-07-06 19:41:00,86.0,55.0,-100.00,NE,38,5.0,13.0,35,0.00,,,0.05,540.000000,,2013-07-06 19:41:00,
2013-07-06 19:51:00,86.0,55.0,-100.00,NE,38,5.0,13.0,35,0.00,,,0.05,540.000000,,2013-07-06 19:51:00,
2013-07-06 20:43:00,86.0,55.0,-100.00,SE,127,5.0,14.0,35,0.00,,,0.05,624.000000,,2013-07-06 20:43:00,
2013-07-06 20:57:00,82.0,55.0,-100.00,ESE,113,7.0,16.0,40,0.00,,,0.05,439.000000,,2013-07-06 20:57:00,
2013-07-06 21:42:00,82.0,55.0,-100.00,ESE,113,7.0,16.0,40,0.00,,,0.05,439.000000,,2013-07-06 21:42:00,
2013-07-06 22:42:00,81.0,54.0,-100.00,NE,39,9.0,19.0,40,0.00,,,-99.99,365.000000,,2013-07-06 22:42:00,
2013-07-06 23:31:00,84.0,54.0,-100.00,NE,52,7.0,19.0,36,0.00,,,0.05,621.000000,,2013-07-06 23:31:00,
2013-07-06 23:43:00,84.0,54.0,-100.00,NE,52,7.0,19.0,36,0.00,,,0.05,621.000000,,2013-07-06 23:43:00,
2013-07-06 23:57:00,82.0,52.0,-100.00,NE,43,8.0,18.0,36,0.00,,,0.05,370.000000,,2013-07-06 23:57:00,